createdAt,value
2022-08-05T00:01:56.755Z,101606.69
2022-08-05T00:04:09.718Z,101599.44
2022-08-05T00:06:28.932Z,101604.63
2022-08-05T00:08:36.249Z,101594.72
2022-08-05T00:10:37.921Z,101582.19
2022-08-05T00:12:48.521Z,101588.28
2022-08-05T00:14:57.746Z,101570.50
2022-08-05T00:17:02.102Z,101562.41
2022-08-05T00:19:04.809Z,101557.91
2022-08-05T00:21:08.399Z,101548.78
2022-08-05T00:23:12.937Z,101555.06
2022-08-05T00:25:14.724Z,101548.84
2022-08-05T00:27:17.856Z,101544.28
2022-08-05T00:29:22.531Z,101535.38
2022-08-05T00:31:53.635Z,101538.31
2022-08-05T00:34:53.627Z,101538.38
2022-08-05T00:36:16.656Z,101537.72
2022-08-05T00:38:29.024Z,101541.69
2022-08-05T00:40:51.818Z,101542.78
2022-08-05T00:42:55.357Z,101552.94
2022-08-05T00:44:56.845Z,101547.75
2022-08-05T00:47:02.217Z,101543.25
2022-08-05T00:49:05.784Z,101545.00
2022-08-05T00:51:50.683Z,101535.88
2022-08-05T00:53:45.411Z,101492.03
2022-08-05T00:55:52.733Z,101446.13
2022-08-05T00:57:58.100Z,101472.34
2022-08-05T01:00:00.806Z,101482.75
2022-08-05T01:02:02.344Z,101488.09
2022-08-05T01:04:04.015Z,101497.88
2022-08-05T01:06:15.625Z,101512.81
2022-08-05T01:08:40.454Z,101523.50
2022-08-05T01:10:51.636Z,101530.19
2022-08-05T01:13:05.261Z,101513.38
2022-08-05T01:15:36.264Z,101476.53
2022-08-05T01:17:44.039Z,101429.88
2022-08-05T01:20:00.995Z,101392.25
2022-08-05T01:22:29.282Z,101370.06
2022-08-05T01:24:52.494Z,101380.22
2022-08-05T01:27:19.806Z,101381.84
2022-08-05T01:29:38.073Z,101382.91
2022-08-05T01:31:52.628Z,101405.56
2022-08-05T01:34:04.560Z,101425.69
2022-08-05T01:36:12.837Z,101437.56
2022-08-05T01:38:26.905Z,101437.03
2022-08-05T01:40:31.638Z,101450.63
2022-08-05T01:42:36.571Z,101446.84
2022-08-05T01:44:40.010Z,101454.78
2022-08-05T01:46:46.199Z,101449.53
2022-08-05T01:48:50.164Z,101466.50
2022-08-05T01:50:53.185Z,101474.75
2022-08-05T01:52:59.143Z,101476.78
2022-08-05T01:55:05.598Z,101479.66
2022-08-05T01:58:11.343Z,101464.50
2022-08-05T01:59:34.012Z,101469.84
2022-08-05T02:01:40.117Z,101491.22
2022-08-05T02:03:46.725Z,101498.69
2022-08-05T02:05:49.920Z,101513.47
2022-08-05T02:08:00.287Z,101513.31
2022-08-05T02:10:04.959Z,101517.00
2022-08-05T02:12:25.424Z,101512.47
2022-08-05T02:14:32.358Z,101507.25
2022-08-05T02:16:42.050Z,101504.66
2022-08-05T02:18:52.512Z,101510.88
2022-08-05T02:21:03.762Z,101512.69
2022-08-05T02:23:10.912Z,101513.63
2022-08-05T02:25:18.309Z,101507.19
2022-08-05T02:27:30.251Z,101514.16
2022-08-05T02:29:59.175Z,101514.94
2022-08-05T02:32:04.827Z,101511.41
2022-08-05T02:34:13.531Z,101517.63
2022-08-05T02:36:17.090Z,101512.53
2022-08-05T02:38:19.484Z,101513.63
2022-08-05T02:40:24.135Z,101512.03
2022-08-05T02:42:30.697Z,101515.91
2022-08-05T02:44:38.429Z,101509.94
2022-08-05T02:46:58.375Z,101506.53
2022-08-05T02:49:03.075Z,101504.88
2022-08-05T02:51:05.762Z,101503.19
2022-08-05T02:53:07.459Z,101494.44
2022-08-05T02:55:14.355Z,101492.78
2022-08-05T02:58:11.773Z,101488.31
2022-08-05T02:59:50.278Z,101484.72
2022-08-05T03:01:58.137Z,101490.03
2022-08-05T03:04:14.129Z,101482.13
2022-08-05T03:06:54.784Z,101489.47
2022-08-05T03:08:42.793Z,101492.47
2022-08-05T03:11:53.288Z,101508.03
2022-08-05T03:13:17.973Z,101508.44
2022-08-05T03:15:20.511Z,101511.25
2022-08-05T03:17:22.235Z,101512.91
2022-08-05T03:19:34.300Z,101515.59
2022-08-05T03:21:41.600Z,101505.72
2022-08-05T03:23:51.713Z,101498.44
2022-08-05T03:26:04.743Z,101491.16
2022-08-05T03:28:18.737Z,101487.28
2022-08-05T03:30:23.255Z,101489.66
2022-08-05T03:32:35.950Z,101494.16
2022-08-05T03:34:38.518Z,101494.94
2022-08-05T03:36:41.384Z,101510.22
2022-08-05T03:38:52.491Z,101520.25
2022-08-05T03:40:55.156Z,101518.50
2022-08-05T03:43:01.659Z,101511.38
2022-08-05T03:45:23.380Z,101508.69
2022-08-05T03:47:25.529Z,101495.34
2022-08-05T03:49:52.005Z,101489.00
2022-08-05T03:52:50.200Z,101505.75
2022-08-05T03:56:01.165Z,101518.44
2022-08-05T03:57:00.165Z,101521.31
2022-08-05T03:59:06.643Z,101523.09
2022-08-05T04:01:11.204Z,101519.56
2022-08-05T04:03:28.509Z,101522.31
2022-08-05T04:05:34.421Z,101527.50
2022-08-05T04:07:58.296Z,101523.84
2022-08-05T04:10:01.648Z,101532.72
2022-08-05T04:12:05.174Z,101538.97
2022-08-05T04:14:29.936Z,101539.06
2022-08-05T04:16:33.002Z,101544.38
2022-08-05T04:18:34.834Z,101554.00
2022-08-05T04:20:36.473Z,101558.31
2022-08-05T04:22:37.980Z,101555.59
2022-08-05T04:24:52.840Z,101564.66
2022-08-05T04:26:54.640Z,101553.19
2022-08-05T04:29:00.827Z,101559.25
2022-08-05T04:31:10.530Z,101553.78
2022-08-05T04:33:13.353Z,101550.03
2022-08-05T04:35:17.693Z,101556.91
2022-08-05T04:37:22.876Z,101546.31
2022-08-05T04:39:42.892Z,101550.91
2022-08-05T04:41:44.529Z,101541.31
2022-08-05T04:43:47.303Z,101535.91
2022-08-05T04:45:55.105Z,101532.16
2022-08-05T04:48:10.221Z,101525.69
2022-08-05T04:50:37.394Z,101519.25
2022-08-05T04:52:40.760Z,101516.59
2022-08-05T04:54:42.531Z,101523.72
2022-08-05T04:57:04.186Z,101516.00
2022-08-05T04:59:21.465Z,101517.81
2022-08-05T05:02:05.445Z,101519.41
2022-08-05T05:03:47.403Z,101541.81
2022-08-05T05:06:39.670Z,101551.03
2022-08-05T05:08:14.359Z,101560.06
2022-08-05T05:10:33.878Z,101568.19
2022-08-05T05:12:36.659Z,101567.25
2022-08-05T05:14:38.475Z,101570.66
2022-08-05T05:16:51.098Z,101571.31
2022-08-05T05:19:17.603Z,101574.59
2022-08-05T05:21:17.498Z,101581.47
2022-08-05T05:23:19.932Z,101579.69
2022-08-05T05:25:21.821Z,101570.59
2022-08-05T05:27:45.767Z,101558.91
2022-08-05T05:30:04.175Z,101550.63
2022-08-05T05:32:07.780Z,101540.59
2022-08-05T05:34:14.308Z,101510.38
2022-08-05T05:36:17.303Z,101498.16
2022-08-05T05:38:22.925Z,101495.69
2022-08-05T05:40:32.155Z,101527.81
2022-08-05T05:42:33.729Z,101539.81
2022-08-05T05:44:42.971Z,101557.00
2022-08-05T05:46:47.755Z,101568.75
2022-08-05T05:48:49.375Z,101574.56
2022-08-05T05:50:52.364Z,101580.16
2022-08-05T05:52:54.328Z,101568.75
2022-08-05T05:54:55.848Z,101553.38
2022-08-05T05:56:57.343Z,101535.69
2022-08-05T05:59:03.403Z,101531.84
2022-08-05T06:01:13.121Z,101541.97
2022-08-05T06:03:40.064Z,101555.25
2022-08-05T06:05:38.239Z,101553.53
2022-08-05T06:07:41.874Z,101562.63
2022-08-05T06:09:59.918Z,101562.63
2022-08-05T06:12:04.003Z,101560.94
2022-08-05T06:14:05.584Z,101561.78
2022-08-05T06:16:30.232Z,101560.06
2022-08-05T06:18:31.436Z,101563.81
2022-08-05T06:20:33.312Z,101561.88
2022-08-05T06:22:37.362Z,101556.41
2022-08-05T06:24:48.291Z,101555.31
2022-08-05T06:26:52.220Z,101570.28
2022-08-05T06:28:54.693Z,101578.50
2022-08-05T06:30:56.236Z,101578.91
2022-08-05T06:32:57.778Z,101594.31
2022-08-05T06:34:59.521Z,101599.06
2022-08-05T06:37:08.107Z,101588.44
2022-08-05T06:39:10.058Z,101590.91
2022-08-05T06:41:11.721Z,101568.47
2022-08-05T06:43:59.755Z,101567.41
2022-08-05T06:46:02.928Z,101576.69
2022-08-05T06:48:37.016Z,101573.00
2022-08-05T06:50:18.803Z,101578.34
2022-08-05T06:52:38.271Z,101578.22
2022-08-05T06:54:42.021Z,101584.50
2022-08-05T06:56:55.136Z,101584.56
2022-08-05T06:59:08.382Z,101595.31
2022-08-05T07:01:11.319Z,101599.72
2022-08-05T07:03:14.970Z,101600.75
2022-08-05T07:05:19.137Z,101604.53
2022-08-05T07:07:24.087Z,101609.06
2022-08-05T07:09:37.438Z,101613.69
2022-08-05T07:11:44.568Z,101612.09
2022-08-05T07:14:15.333Z,101610.31
2022-08-05T07:18:00.089Z,101623.44
2022-08-05T07:19:02.355Z,101616.16
2022-08-05T07:21:06.256Z,101612.34
2022-08-05T07:23:09.835Z,101615.75
2022-08-05T07:25:55.149Z,101629.44
2022-08-05T07:27:57.949Z,101628.56
2022-08-05T07:30:27.255Z,101630.19
2022-08-05T07:32:26.043Z,101640.00
2022-08-05T07:34:28.801Z,101643.41
2022-08-05T07:36:30.960Z,101633.72
2022-08-05T07:38:42.507Z,101635.38
2022-08-05T07:40:45.482Z,101642.31
2022-08-05T07:42:57.124Z,101635.97
2022-08-05T07:45:00.556Z,101637.13
2022-08-05T07:47:02.105Z,101623.03
2022-08-05T07:49:09.485Z,101623.13
2022-08-05T07:51:23.492Z,101615.97
2022-08-05T07:53:36.997Z,101630.44
2022-08-05T07:56:05.511Z,101620.84
2022-08-05T07:58:17.794Z,101620.13
2022-08-05T08:00:35.537Z,101622.22
2022-08-05T08:03:13.719Z,101640.03
2022-08-05T08:04:59.616Z,101631.44
2022-08-05T08:07:05.387Z,101632.44
2022-08-05T08:09:07.152Z,101627.84
2022-08-05T08:11:09.106Z,101624.16
2022-08-05T08:13:22.133Z,101631.25
2022-08-05T08:16:33.927Z,101632.84
2022-08-05T08:17:53.258Z,101628.56
2022-08-05T08:20:21.206Z,101623.50
2022-08-05T08:22:16.584Z,101619.16
2022-08-05T08:24:18.121Z,101623.63
2022-08-05T08:26:26.926Z,101629.06
2022-08-05T08:28:36.223Z,101633.78
2022-08-05T08:30:47.718Z,101638.44
2022-08-05T08:32:51.297Z,101637.56
2022-08-05T08:34:52.793Z,101636.41
2022-08-05T08:37:05.192Z,101638.19
2022-08-05T08:39:15.060Z,101642.53
2022-08-05T08:41:17.449Z,101646.72
2022-08-05T08:45:18.028Z,101669.69
2022-08-05T08:45:46.759Z,101673.16
2022-08-05T08:48:07.474Z,101665.16
2022-08-05T08:50:29.882Z,101655.59
2022-08-05T08:52:36.405Z,101647.59
2022-08-05T08:54:39.759Z,101661.09
2022-08-05T08:56:47.560Z,101665.50
2022-08-05T08:58:51.438Z,101660.34
2022-08-05T09:00:53.167Z,101659.41
2022-08-05T09:02:56.617Z,101658.63
2022-08-05T09:05:17.929Z,101654.75
2022-08-05T09:07:28.659Z,101658.88
2022-08-05T09:09:34.867Z,101679.16
2022-08-05T09:11:51.202Z,101672.88
2022-08-05T09:14:09.182Z,101669.22
2022-08-05T09:16:17.741Z,101652.31
2022-08-05T09:18:20.371Z,101657.66
2022-08-05T09:20:37.477Z,101653.13
2022-08-05T09:23:07.766Z,101660.09
2022-08-05T09:25:23.673Z,101664.66
2022-08-05T09:28:05.293Z,101657.53
2022-08-05T09:29:57.060Z,101652.00
2022-08-05T09:32:42.124Z,101651.16
2022-08-05T09:34:48.509Z,101655.00
2022-08-05T09:36:56.352Z,101654.34
2022-08-05T09:39:16.649Z,101650.00
2022-08-05T09:41:20.095Z,101650.72
2022-08-05T09:43:40.774Z,101648.00
2022-08-05T09:46:06.176Z,101653.31
2022-08-05T09:48:26.836Z,101661.47
2022-08-05T09:50:44.568Z,101665.88
2022-08-05T09:52:48.319Z,101672.34
2022-08-05T09:55:21.138Z,101665.00
2022-08-05T09:57:30.641Z,101657.53
2022-08-05T09:59:37.252Z,101669.94
2022-08-05T10:01:45.809Z,101676.13
2022-08-05T10:04:13.623Z,101673.44
2022-08-05T10:06:19.951Z,101671.72
2022-08-05T10:08:37.249Z,101685.94
2022-08-05T10:10:50.497Z,101690.28
2022-08-05T10:12:59.214Z,101679.38
2022-08-05T10:15:16.251Z,101677.50
2022-08-05T10:17:37.168Z,101686.91
2022-08-05T10:20:04.459Z,101687.78
2022-08-05T10:22:02.942Z,101681.31
2022-08-05T10:24:10.930Z,101677.22
2022-08-05T10:26:14.204Z,101682.63
2022-08-05T10:28:19.523Z,101679.09
2022-08-05T10:32:46.947Z,101685.03
2022-08-05T10:33:02.136Z,101688.50
2022-08-05T10:35:04.654Z,101698.41
2022-08-05T10:37:07.190Z,101701.47
2022-08-05T10:39:24.834Z,101698.53
2022-08-05T10:41:46.410Z,101687.84
2022-08-05T10:44:01.845Z,101686.91
2022-08-05T10:46:09.080Z,101693.84
2022-08-05T10:48:57.371Z,101705.78
2022-08-05T10:51:06.172Z,101719.81
2022-08-05T10:53:37.992Z,101724.06
2022-08-05T10:56:21.163Z,101728.31
2022-08-05T10:58:35.855Z,101727.34
2022-08-05T11:00:48.492Z,101728.88
2022-08-05T11:03:23.498Z,101741.09
2022-08-05T11:05:31.515Z,101747.03
2022-08-05T11:08:01.096Z,101738.53
2022-08-05T11:10:03.666Z,101733.63
2022-08-05T11:12:26.873Z,101734.25
2022-08-05T11:14:57.350Z,101744.88
2022-08-05T11:17:58.205Z,101749.88
2022-08-05T11:20:10.309Z,101747.69
2022-08-05T11:22:53.902Z,101745.47
2022-08-05T11:26:05.014Z,101754.06
2022-08-05T11:28:00.825Z,101753.41
2022-08-05T11:30:02.677Z,101753.69
2022-08-05T11:32:23.467Z,101752.31
2022-08-05T11:34:38.323Z,101749.13
2022-08-05T11:36:44.656Z,101757.75
2022-08-05T11:38:52.781Z,101762.38
2022-08-05T11:41:14.211Z,101764.19
2022-08-05T11:43:58.484Z,101767.66
2022-08-05T11:46:30.872Z,101769.88
2022-08-05T11:48:11.476Z,101773.19
2022-08-05T11:50:14.240Z,101772.69
2022-08-05T11:52:23.787Z,101773.84
2022-08-05T11:54:34.910Z,101776.94
2022-08-05T11:56:53.283Z,101784.59
2022-08-05T11:58:54.751Z,101780.09
2022-08-05T12:01:10.553Z,101790.59
2022-08-05T12:03:24.006Z,101792.00
2022-08-05T12:05:36.452Z,101791.06
2022-08-05T12:08:08.220Z,101793.75
2022-08-05T12:10:09.052Z,101793.34
2022-08-05T12:12:11.580Z,101791.38
2022-08-05T12:14:13.282Z,101797.44
2022-08-05T12:16:19.125Z,101795.63
2022-08-05T12:18:38.947Z,101795.47
2022-08-05T12:20:40.769Z,101796.09
2022-08-05T12:22:43.138Z,101794.22
2022-08-05T12:24:51.716Z,101798.31
2022-08-05T12:26:55.027Z,101797.91
2022-08-05T12:28:56.658Z,101800.34
2022-08-05T12:31:02.039Z,101803.75
2022-08-05T12:33:07.434Z,101792.66
2022-08-05T12:35:39.740Z,101788.63
2022-08-05T12:37:42.826Z,101792.47
2022-08-05T12:39:51.391Z,101807.19
2022-08-05T12:41:59.467Z,101807.88
2022-08-05T12:44:14.527Z,101807.72
2022-08-05T12:46:36.330Z,101799.06
2022-08-05T12:48:40.584Z,101795.59
2022-08-05T12:50:42.185Z,101790.72
2022-08-05T12:52:59.870Z,101795.38
2022-08-05T12:55:01.464Z,101798.31
2022-08-05T12:57:09.168Z,101800.91
2022-08-05T12:59:27.337Z,101797.75
2022-08-05T13:02:20.245Z,101800.63
2022-08-05T13:04:41.790Z,101794.59
2022-08-05T13:06:58.059Z,101796.84
2022-08-05T13:09:07.737Z,101793.81
2022-08-05T13:11:17.449Z,101791.31
2022-08-05T13:14:04.905Z,101793.47
2022-08-05T13:16:01.370Z,101799.16
2022-08-05T13:18:04.605Z,101805.22
2022-08-05T13:20:24.167Z,101800.66
2022-08-05T13:22:29.731Z,101798.22
2022-08-05T13:24:44.998Z,101792.84
2022-08-05T13:26:53.119Z,101801.75
2022-08-05T13:28:54.767Z,101793.88
2022-08-05T13:30:57.228Z,101794.16
2022-08-05T13:33:01.424Z,101798.03
2022-08-05T13:35:04.054Z,101793.53
2022-08-05T13:37:05.660Z,101788.97
2022-08-05T13:39:24.638Z,101790.84
2022-08-05T13:41:37.522Z,101798.56
2022-08-05T13:43:44.163Z,101800.34
2022-08-05T13:45:47.866Z,101801.06
2022-08-05T13:48:09.975Z,101810.75
2022-08-05T13:50:16.768Z,101806.34
2022-08-05T13:52:29.085Z,101806.25
2022-08-05T13:54:31.008Z,101813.28
2022-08-05T13:56:32.964Z,101815.78
2022-08-05T13:58:35.653Z,101819.88
2022-08-05T14:00:41.655Z,101812.59
2022-08-05T14:02:43.339Z,101834.06
2022-08-05T14:05:05.184Z,101829.81
2022-08-05T14:07:25.376Z,101830.16
2022-08-05T14:09:29.788Z,101836.03
2022-08-05T14:11:31.807Z,101825.13
2022-08-05T14:13:55.069Z,101842.38
2022-08-05T14:16:09.178Z,101837.09
2022-08-05T14:18:17.591Z,101840.47
2022-08-05T14:20:20.693Z,101850.16
2022-08-05T14:22:30.274Z,101852.06
2022-08-05T14:24:36.135Z,101858.22
2022-08-05T14:26:51.495Z,101855.03
2022-08-05T14:29:00.027Z,101860.84
2022-08-05T14:31:01.927Z,101863.31
2022-08-05T14:33:04.699Z,101866.53
2022-08-05T14:35:10.625Z,101863.66
2022-08-05T14:37:13.396Z,101872.06
2022-08-05T14:39:23.590Z,101879.34
2022-08-05T14:41:25.205Z,101879.25
2022-08-05T14:43:59.215Z,101895.44
2022-08-05T14:45:49.370Z,101887.69
2022-08-05T14:48:05.710Z,101891.66
2022-08-05T14:50:17.191Z,101907.22
2022-08-05T14:52:42.901Z,101894.84
2022-08-05T14:54:52.795Z,101896.22
2022-08-05T14:56:55.399Z,101900.66
2022-08-05T14:58:56.951Z,101896.31
2022-08-05T15:01:00.270Z,101911.09
2022-08-05T15:03:03.414Z,101916.63
2022-08-05T15:05:08.771Z,101907.22
2022-08-05T15:08:12.464Z,101923.94
2022-08-05T15:09:51.742Z,101925.59
2022-08-05T15:11:57.017Z,101920.13
2022-08-05T15:13:59.201Z,101926.03
2022-08-05T15:16:01.690Z,101935.81
2022-08-05T15:18:03.750Z,101936.25
2022-08-05T15:20:18.410Z,101936.81
2022-08-05T15:22:20.975Z,101944.25
2022-08-05T15:24:23.012Z,101943.78
2022-08-05T15:26:32.063Z,101943.22
2022-08-05T15:28:34.001Z,101944.34
2022-08-05T15:30:38.802Z,101949.72
2022-08-05T15:32:41.388Z,101954.97
2022-08-05T15:34:42.921Z,101949.47
2022-08-05T15:36:44.453Z,101968.25
2022-08-05T15:38:46.412Z,101956.75
2022-08-05T15:41:03.773Z,101971.16
2022-08-05T15:43:19.875Z,101970.47
2022-08-05T15:45:36.325Z,101975.91
2022-08-05T15:47:42.217Z,101967.38
2022-08-05T15:49:58.466Z,101980.94
2022-08-05T15:52:12.568Z,101976.38
2022-08-05T15:54:34.515Z,101986.31
2022-08-05T15:56:36.759Z,101977.72
2022-08-05T15:58:38.269Z,101988.66
2022-08-05T16:00:57.109Z,101987.94
2022-08-05T16:03:03.611Z,101984.47
2022-08-05T16:05:05.804Z,101991.66
2022-08-05T16:07:11.382Z,101993.38
2022-08-05T16:09:15.377Z,101989.84
2022-08-05T16:11:17.084Z,102001.88
2022-08-05T16:13:23.629Z,101992.16
2022-08-05T16:15:32.370Z,101999.78
2022-08-05T16:17:34.060Z,102008.97
2022-08-05T16:20:05.242Z,102005.66
2022-08-05T16:22:00.528Z,102008.56
2022-08-05T16:24:04.658Z,102005.28
2022-08-05T16:26:10.902Z,102013.47
2022-08-05T16:28:15.604Z,102009.00
2022-08-05T16:30:25.748Z,102017.75
2022-08-05T16:32:29.389Z,102022.63
2022-08-05T16:34:31.322Z,102022.75
2022-08-05T16:36:33.016Z,102033.59
2022-08-05T16:38:35.679Z,102033.81
2022-08-05T16:40:37.444Z,102034.97
2022-08-05T16:42:39.241Z,102036.84
2022-08-05T16:44:41.258Z,102044.09
2022-08-05T16:46:56.025Z,102049.53
2022-08-05T16:48:57.923Z,102042.22
2022-08-05T16:50:59.458Z,102053.19
2022-08-05T16:53:12.127Z,102055.00
2022-08-05T16:55:14.258Z,102057.63
2022-08-05T16:57:22.045Z,102054.56
2022-08-05T16:59:30.645Z,102065.47
2022-08-05T17:01:54.997Z,102070.16
2022-08-05T17:03:54.309Z,102062.06
2022-08-05T17:05:59.535Z,102062.66
2022-08-05T17:08:01.278Z,102053.69
2022-08-05T17:10:03.645Z,102062.66
2022-08-05T17:12:05.393Z,102062.94
2022-08-05T17:14:06.921Z,102073.22
2022-08-05T17:16:32.688Z,102067.88
2022-08-05T17:18:34.746Z,102070.69
2022-08-05T17:20:36.396Z,102079.44
2022-08-05T17:22:38.816Z,102076.63
2022-08-05T17:24:57.173Z,102072.22
2022-08-05T17:27:00.162Z,102080.50
2022-08-05T17:29:04.221Z,102075.22
2022-08-05T17:31:24.387Z,102083.19
2022-08-05T17:33:38.734Z,102088.19
2022-08-05T17:36:08.654Z,102094.44
2022-08-05T17:38:11.377Z,102086.66
2022-08-05T17:40:22.543Z,102086.66
2022-08-05T17:42:29.734Z,102090.16
2022-08-05T17:44:33.738Z,102101.72
2022-08-05T17:46:36.811Z,102099.25
2022-08-05T17:48:38.441Z,102104.72
2022-08-05T17:50:40.012Z,102100.97
2022-08-05T17:52:53.266Z,102103.91
2022-08-05T17:54:56.544Z,102106.03
2022-08-05T17:56:58.615Z,102110.97
2022-08-05T17:59:00.196Z,102109.47
2022-08-05T18:01:01.818Z,102109.53
2022-08-05T18:03:10.177Z,102117.75
2022-08-05T18:05:11.741Z,102125.94
2022-08-05T18:07:18.515Z,102122.34
2022-08-05T18:09:22.642Z,102123.53
2022-08-05T18:11:44.204Z,102123.66
2022-08-05T18:13:45.697Z,102135.84
2022-08-05T18:15:47.591Z,102137.63
2022-08-05T18:17:59.270Z,102133.34
2022-08-05T18:20:03.659Z,102143.16
2022-08-05T18:22:09.245Z,102138.34
2022-08-05T18:24:12.726Z,102142.00
2022-08-05T18:26:18.183Z,102146.72
2022-08-05T18:28:22.091Z,102146.06
2022-08-05T18:30:29.802Z,102156.75
2022-08-05T18:32:31.582Z,102153.34
2022-08-05T18:34:41.119Z,102158.22
2022-08-05T18:36:43.608Z,102166.19
2022-08-05T18:38:45.385Z,102158.97
2022-08-05T18:41:56.590Z,102162.47
2022-08-05T18:43:09.053Z,102170.72
2022-08-05T18:45:18.116Z,102166.28
2022-08-05T18:47:22.750Z,102168.22
2022-08-05T18:49:57.824Z,102172.25
2022-08-05T18:52:33.221Z,102166.47
2022-08-05T18:54:35.111Z,102175.63
2022-08-05T18:56:36.626Z,102179.28
2022-08-05T18:58:39.872Z,102179.59
2022-08-05T19:00:44.613Z,102185.28
2022-08-05T19:02:50.252Z,102184.53
2022-08-05T19:05:01.688Z,102190.63
2022-08-05T19:07:14.553Z,102188.22
2022-08-05T19:09:16.061Z,102189.09
2022-08-05T19:11:28.021Z,102199.97
2022-08-05T19:13:30.295Z,102196.81
2022-08-05T19:15:58.199Z,102207.47
2022-08-05T19:18:10.350Z,102208.47
2022-08-05T19:20:15.272Z,102220.00
2022-08-05T19:22:17.701Z,102213.84
2022-08-05T19:24:34.815Z,102217.44
2022-08-05T19:26:54.158Z,102223.81
2022-08-05T19:28:57.091Z,102226.75
2022-08-05T19:30:59.172Z,102224.34
2022-08-05T19:33:04.636Z,102242.19
2022-08-05T19:35:07.626Z,102226.34
2022-08-05T19:37:10.054Z,102238.91
2022-08-05T19:39:11.629Z,102239.91
2022-08-05T19:41:21.957Z,102241.88
2022-08-05T19:44:05.804Z,102246.47
2022-08-05T19:45:58.778Z,102250.91
2022-08-05T19:48:01.061Z,102254.47
2022-08-05T19:50:02.833Z,102253.88
2022-08-05T19:52:29.300Z,102256.72
2022-08-05T19:54:31.551Z,102261.34
2022-08-05T19:56:35.394Z,102269.44
2022-08-05T19:58:53.584Z,102266.91
2022-08-05T20:00:55.950Z,102270.53
2022-08-05T20:02:58.701Z,102272.41
2022-08-05T20:05:00.349Z,102276.00
2022-08-05T20:07:02.426Z,102283.94
2022-08-05T20:09:13.995Z,102284.78
2022-08-05T20:11:18.099Z,102274.25
2022-08-05T20:13:25.813Z,102283.25
2022-08-05T20:15:52.502Z,102281.56
2022-08-05T20:18:01.108Z,102287.94
2022-08-05T20:20:07.576Z,102292.47
2022-08-05T20:22:10.942Z,102293.34
2022-08-05T20:24:14.270Z,102296.06
2022-08-05T20:26:24.572Z,102303.25
2022-08-05T20:28:26.879Z,102304.22
2022-08-05T20:30:30.193Z,102305.97
2022-08-05T20:32:31.890Z,102308.69
2022-08-05T20:34:34.768Z,102314.06
2022-08-05T20:36:38.994Z,102317.69
2022-08-05T20:38:53.447Z,102322.13
2022-08-05T20:40:56.962Z,102326.66
2022-08-05T20:43:00.015Z,102320.50
2022-08-05T20:45:01.764Z,102324.03
2022-08-05T20:47:06.705Z,102331.16
2022-08-05T20:49:09.102Z,102325.88
2022-08-05T20:51:10.626Z,102325.00
2022-08-05T20:53:16.015Z,102325.97
2022-08-05T20:56:07.349Z,102331.44
2022-08-05T20:57:57.619Z,102329.88
2022-08-05T21:00:20.614Z,102337.06
2022-08-05T21:02:20.651Z,102339.91
2022-08-05T21:04:30.101Z,102345.31
2022-08-05T21:06:31.575Z,102346.25
2022-08-05T21:08:42.040Z,102345.44
2022-08-05T21:10:49.006Z,102346.34
2022-08-05T21:12:57.986Z,102350.78
2022-08-05T21:15:10.822Z,102353.53
2022-08-05T21:17:12.619Z,102352.69
2022-08-05T21:19:14.200Z,102358.94
2022-08-05T21:21:15.715Z,102361.69
2022-08-05T21:23:17.228Z,102360.00
2022-08-05T21:25:18.757Z,102357.44
2022-08-05T21:27:25.487Z,102363.72
2022-08-05T21:29:31.417Z,102366.41
2022-08-05T21:31:41.158Z,102365.59
2022-08-05T21:33:43.521Z,102364.72
2022-08-05T21:35:55.759Z,102375.38
2022-08-05T21:38:02.205Z,102366.53
2022-08-05T21:40:05.706Z,102359.47
2022-08-05T21:42:07.753Z,102358.63
2022-08-05T21:44:31.079Z,102372.88
2022-08-05T21:46:34.223Z,102371.16
2022-08-05T21:48:36.394Z,102375.66
2022-08-05T21:50:37.897Z,102373.94
2022-08-05T21:52:39.617Z,102370.41
2022-08-05T21:54:51.876Z,102381.09
2022-08-05T21:57:15.490Z,102378.50
2022-08-05T21:59:23.866Z,102380.38
2022-08-05T22:01:26.918Z,102379.59
2022-08-05T22:03:51.872Z,102379.66
2022-08-05T22:05:53.273Z,102374.47
2022-08-05T22:07:58.889Z,102377.19
2022-08-05T22:10:01.531Z,102380.75
2022-08-05T22:12:03.381Z,102379.06
2022-08-05T22:14:33.672Z,102380.00
2022-08-05T22:16:51.847Z,102375.66
2022-08-05T22:18:58.601Z,102383.66
2022-08-05T22:21:00.760Z,102378.44
2022-08-05T22:23:24.553Z,102380.28
2022-08-05T22:26:10.169Z,102382.09
2022-08-05T22:28:10.328Z,102383.91
2022-08-05T22:30:14.891Z,102384.78
2022-08-05T22:32:18.705Z,102389.22
2022-08-05T22:34:28.481Z,102391.94
2022-08-05T22:36:30.627Z,102391.13
2022-08-05T22:38:32.170Z,102394.72
2022-08-05T22:40:35.968Z,102392.13
2022-08-05T22:42:37.479Z,102389.50
2022-08-05T22:44:53.607Z,102397.50
2022-08-05T22:46:58.383Z,102390.44
2022-08-05T22:49:00.260Z,102386.03
2022-08-05T22:51:01.795Z,102389.59
2022-08-05T22:53:10.349Z,102388.81
2022-08-05T22:55:19.432Z,102391.47
2022-08-05T22:57:21.696Z,102391.53
2022-08-05T22:59:46.517Z,102393.31
2022-08-05T23:02:04.178Z,102396.88
2022-08-05T23:04:07.574Z,102399.56
2022-08-05T23:06:09.234Z,102404.00
2022-08-05T23:08:12.379Z,102404.03
2022-08-05T23:10:16.469Z,102404.09
2022-08-05T23:12:24.347Z,102409.56
2022-08-05T23:14:31.872Z,102409.69
2022-08-05T23:16:52.514Z,102412.44
2022-08-05T23:18:54.221Z,102415.06
2022-08-05T23:20:57.234Z,102416.81
2022-08-05T23:23:03.550Z,102421.19
2022-08-05T23:25:08.114Z,102423.84
2022-08-05T23:27:13.424Z,102428.25
2022-08-05T23:29:15.684Z,102424.75
2022-08-05T23:31:18.076Z,102420.31
2022-08-05T23:33:25.582Z,102424.75
2022-08-05T23:35:28.674Z,102422.13
2022-08-05T23:37:36.682Z,102419.53
2022-08-05T23:39:53.982Z,102432.78
2022-08-05T23:41:56.846Z,102431.09
2022-08-05T23:44:05.451Z,102431.94
2022-08-05T23:46:21.483Z,102436.38
2022-08-05T23:48:23.510Z,102432.81
2022-08-05T23:50:27.911Z,102438.97
2022-08-05T23:52:36.089Z,102439.88
2022-08-05T23:54:51.095Z,102443.47
2022-08-05T23:56:53.977Z,102446.13
2022-08-05T23:58:55.446Z,102444.34
